Time;durP1;ratioP1;P1;durP2;ratioP2;P2;SDS_P1;SDS_P2;PMS_P1;PMS_P2;Temp;Humidity;BMP_temperature;BMP_pressure;BME280_temperature;BME280_humidity;BME280_pressure;Samples;Min_cycle;Max_cycle;Signal;HPM_P1;HPM_P2
2022/11/26 00:00:44;;;;;;;13.77;4.07;;;;;;;6.10;100.00;102465.34;5020117;28;20406;-69
2022/11/26 00:03:11;;;;;;;22.63;4.55;;;;;;;6.11;100.00;102464.53;5018573;28;20025;-69
2022/11/26 00:05:37;;;;;;;18.08;4.88;;;;;;;6.08;100.00;102473.97;5015307;28;20022;-70
2022/11/26 00:08:03;;;;;;;16.00;4.82;;;;;;;6.11;100.00;102472.38;5016588;28;20058;-70
2022/11/26 00:10:33;;;;;;;21.02;4.47;;;;;;;6.14;100.00;102469.94;5013411;28;20038;-69
2022/11/26 00:12:58;;;;;;;19.95;4.57;;;;;;;6.13;100.00;102471.66;5017482;28;20060;-69
2022/11/26 00:15:26;;;;;;;20.05;4.68;;;;;;;6.11;100.00;102475.00;5013782;28;20026;-67
2022/11/26 00:17:53;;;;;;;19.90;4.55;;;;;;;6.10;100.00;102481.03;5016147;28;20022;-69
2022/11/26 00:20:21;;;;;;;16.90;4.32;;;;;;;6.09;100.00;102485.38;5013044;28;20038;-69
2022/11/26 00:22:55;;;;;;;16.73;4.45;;;;;;;6.08;100.00;102480.94;5027876;28;20067;-68
2022/11/26 00:25:24;;;;;;;13.50;4.53;;;;;;;6.05;100.00;102489.50;5027156;28;20037;-68
2022/11/26 00:27:52;;;;;;;22.42;4.30;;;;;;;6.04;100.00;102485.06;5013083;28;20122;-68
2022/11/26 00:30:26;;;;;;;27.55;5.00;;;;;;;6.04;100.00;102485.06;5012877;28;20041;-67
2022/11/26 00:32:54;;;;;;;23.73;4.35;;;;;;;6.04;100.00;102490.28;5015315;28;20033;-68
2022/11/26 00:35:20;;;;;;;20.45;4.88;;;;;;;6.02;100.00;102491.91;5025975;28;20017;-68
2022/11/26 00:37:57;;;;;;;22.77;4.75;;;;;;;5.97;100.00;102493.31;5017358;28;20168;-68
2022/11/26 00:40:28;;;;;;;17.90;4.03;;;;;;;5.95;100.00;102489.69;5015330;28;20034;-68
2022/11/26 00:42:54;;;;;;;34.10;5.20;;;;;;;5.95;100.00;102488.78;5012913;28;20504;-68
2022/11/26 00:45:22;;;;;;;19.80;4.45;;;;;;;5.96;100.00;102488.00;5024327;28;20116;-69
2022/11/26 00:47:49;;;;;;;32.33;5.38;;;;;;;5.98;100.00;102489.94;5020542;28;20064;-68
2022/11/26 00:50:20;;;;;;;21.52;5.20;;;;;;;5.96;100.00;102488.00;5019424;28;20033;-69
2022/11/26 00:52:49;;;;;;;22.67;4.75;;;;;;;5.98;100.00;102484.69;5023266;28;20458;-69
2022/11/26 00:55:21;;;;;;;19.88;4.82;;;;;;;6.03;100.00;102493.69;5026334;28;20029;-69
2022/11/26 00:57:46;;;;;;;18.63;5.35;;;;;;;6.02;100.00;102489.31;5020076;28;20117;-69
2022/11/26 01:00:24;;;;;;;18.88;5.40;;;;;;;6.01;100.00;102484.88;5018633;28;20128;-69
2022/11/26 01:02:50;;;;;;;22.85;5.05;;;;;;;5.97;100.00;102488.09;5032231;28;20037;-68
2022/11/26 01:05:16;;;;;;;25.08;5.50;;;;;;;5.95;100.00;102489.69;5035870;28;20028;-69
2022/11/26 01:07:43;;;;;;;23.20;5.22;;;;;;;5.92;100.00;102489.50;5017581;28;20091;-67
2022/11/26 01:10:17;;;;;;;16.67;4.75;;;;;;;5.91;100.00;102491.22;5030103;28;20108;-69
2022/11/26 01:12:42;;;;;;;20.20;5.32;;;;;;;5.92;100.00;102499.94;5029844;28;20437;-69
2022/11/26 01:15:08;;;;;;;27.40;4.95;;;;;;;5.87;100.00;102503.97;5017931;28;20038;-69
2022/11/26 01:17:34;;;;;;;16.33;4.63;;;;;;;5.85;100.00;102511.72;5030067;28;20030;-68
2022/11/26 01:20:00;;;;;;;19.30;4.97;;;;;;;5.87;100.00;102506.59;5029948;28;20033;-68
2022/11/26 01:22:25;;;;;;;28.63;5.45;;;;;;;5.84;100.00;102514.25;5026943;28;20219;-68
2022/11/26 01:24:50;;;;;;;29.02;5.38;;;;;;;5.87;100.00;102522.25;5027454;28;20053;-68
2022/11/26 01:27:19;;;;;;;16.80;5.07;;;;;;;5.87;100.00;102522.25;5025578;28;20517;-69
2022/11/26 01:29:44;;;;;;;30.70;5.72;;;;;;;5.83;100.00;102522.88;5023857;28;20458;-68
2022/11/26 01:32:10;;;;;;;18.52;4.90;;;;;;;5.83;100.00;102526.41;5019534;28;20076;-69
2022/11/26 01:34:35;;;;;;;20.08;4.80;;;;;;;5.85;100.00;102530.00;5021238;28;20029;-68
2022/11/26 01:37:01;;;;;;;19.95;5.05;;;;;;;5.84;100.00;102524.69;5026144;28;20068;-69
2022/11/26 01:39:26;;;;;;;22.88;5.00;;;;;;;5.82;100.00;102529.81;5019712;28;20041;-69
2022/11/26 01:42:04;;;;;;;27.23;5.15;;;;;;;5.80;100.00;102526.19;5021743;28;20018;-69
2022/11/26 01:44:31;;;;;;;12.90;5.22;;;;;;;5.79;100.00;102527.00;5030238;28;20022;-69
2022/11/26 01:46:59;;;;;;;26.73;5.57;;;;;;;5.79;100.00;102534.84;5034272;28;20026;-69
2022/11/26 01:49:30;;;;;;;17.75;5.15;;;;;;;5.78;100.00;102533.06;5026351;28;20045;-69
2022/11/26 01:52:07;;;;;;;17.23;5.07;;;;;;;5.78;100.00;102534.75;5027100;28;20037;-69
2022/11/26 01:54:36;;;;;;;18.10;4.93;;;;;;;5.78;100.00;102527.84;5029620;28;20481;-68
2022/11/26 01:57:28;;;;;;;21.58;5.85;;;;;;;5.73;100.00;102530.13;5021157;28;20022;-68
2022/11/26 02:00:00;;;;;;;33.00;5.78;;;;;;;5.71;100.00;102523.00;5024279;28;20482;-68
2022/11/26 02:02:27;;;;;;;19.27;5.75;;;;;;;5.70;100.00;102526.44;5016096;28;20029;-68
2022/11/26 02:05:04;;;;;;;25.83;6.28;;;;;;;5.70;100.00;102529.06;5029397;28;20079;-68
2022/11/26 02:07:30;;;;;;;24.02;5.10;;;;;;;5.69;100.00;102524.63;5018278;28;20482;-69
2022/11/26 02:09:55;;;;;;;21.73;5.60;;;;;;;5.66;100.00;102520.09;5020981;28;20045;-69
2022/11/26 02:12:20;;;;;;;19.10;5.78;;;;;;;5.65;100.00;102520.00;5018418;28;20037;-69
2022/11/26 02:14:46;;;;;;;22.77;5.15;;;;;;;5.66;100.00;102517.50;5020853;28;20017;-68
2022/11/26 02:17:24;;;;;;;24.52;5.75;;;;;;;5.68;100.00;102521.13;5018291;28;20104;-69
2022/11/26 02:20:30;;;;;;;33.05;7.30;;;;;;;5.71;100.00;102526.53;5029918;28;20037;-69
2022/11/26 02:23:16;;;;;;;21.92;4.95;;;;;;;5.76;100.00;102523.31;5025441;28;20087;-68
2022/11/26 02:26:00;;;;;;;34.50;6.38;;;;;;;5.77;100.00;102525.13;5032259;28;20454;-68
2022/11/26 02:29:06;;;;;;;19.75;4.85;;;;;;;5.78;100.00;102526.91;5018375;28;20048;-68
2022/11/26 02:31:40;;;;;;;19.77;4.70;;;;;;;5.80;100.00;102530.53;5021878;28;20033;-68
2022/11/26 02:34:14;;;;;;;;;;;;;;;5.81;100.00;102534.97;5022695;28;20104;-68
2022/11/26 02:36:44;;;;;;;26.65;6.72;;;;;;;5.81;100.00;102537.56;5021767;28;20028;-68
2022/11/26 02:39:11;;;;;;;33.83;6.82;;;;;;;5.82;100.00;102541.97;5024344;28;20036;-69
2022/11/26 02:41:44;;;;;;;25.10;5.85;;;;;;;5.84;100.00;102543.88;5020228;28;20077;-68
2022/11/26 02:44:10;;;;;;;21.23;5.30;;;;;;;5.85;100.00;102543.06;5018853;28;20083;-69
2022/11/26 02:46:38;;;;;;;25.92;5.82;;;;;;;5.87;100.00;102551.00;5014390;28;20033;-71
2022/11/26 02:49:03;;;;;;;18.35;5.70;;;;;;;5.92;100.00;102541.75;5023428;28;20030;-67
2022/11/26 02:51:29;;;;;;;29.88;6.20;;;;;;;5.94;100.00;102549.69;5016269;28;20045;-69
2022/11/26 02:53:55;;;;;;;23.90;5.50;;;;;;;5.93;100.00;102543.56;5033335;28;20044;-68
2022/11/26 02:56:23;;;;;;;23.05;5.80;;;;;;;5.92;100.00;102546.97;5018191;28;20104;-69
2022/11/26 02:58:51;;;;;;;18.10;5.72;;;;;;;5.96;100.00;102543.75;5013846;28;20037;-67
2022/11/26 03:01:32;;;;;;;26.40;6.32;;;;;;;5.98;100.00;102549.09;5021191;28;20079;-68
2022/11/26 03:04:04;;;;;;;19.60;6.30;;;;;;;5.99;100.00;102553.53;5014608;28;20386;-69
2022/11/26 03:06:31;;;;;;;35.03;7.20;;;;;;;5.94;100.00;102545.38;5016068;28;20091;-69
2022/11/26 03:08:57;;;;;;;21.08;4.90;;;;;;;5.95;100.00;102547.16;5025154;28;20025;-68
2022/11/26 03:11:23;;;;;;;12.93;5.63;;;;;;;5.98;100.00;102552.63;5026086;28;20057;-68
2022/11/26 03:13:48;;;;;;;25.27;6.63;;;;;;;5.99;100.00;102549.19;5014312;28;20508;-69
2022/11/26 03:16:15;;;;;;;24.70;5.97;;;;;;;5.98;100.00;102552.63;5020633;28;20351;-70
2022/11/26 03:18:40;;;;;;;23.33;5.82;;;;;;;5.99;100.00;102554.41;5017928;28;20030;-70
2022/11/26 03:21:06;;;;;;;32.33;6.05;;;;;;;5.96;100.00;102548.09;5019216;28;20484;-69
2022/11/26 03:23:31;;;;;;;15.02;6.75;;;;;;;5.97;100.00;102549.88;5024700;28;20400;-68
2022/11/26 03:25:56;;;;;;;18.85;5.43;;;;;;;5.97;100.00;102555.09;5027866;28;20104;-68
2022/11/26 03:28:21;;;;;;;31.05;7.10;;;;;;;5.99;100.00;102561.38;5016512;28;20036;-69
2022/11/26 03:30:50;;;;;;;18.75;6.00;;;;;;;5.99;100.00;102559.66;5023363;28;20017;-69
2022/11/26 03:33:16;;;;;;;20.05;6.32;;;;;;;6.01;100.00;102562.34;5013644;28;20034;-68
2022/11/26 03:35:41;;;;;;;18.88;6.15;;;;;;;6.01;100.00;102562.34;5019179;28;20025;-69
2022/11/26 03:38:07;;;;;;;28.60;7.00;;;;;;;6.03;100.00;102572.09;5019976;28;20034;-69
2022/11/26 03:40:32;;;;;;;33.22;6.65;;;;;;;6.06;100.00;102574.94;5022600;28;20025;-68
2022/11/26 03:42:57;;;;;;;21.48;6.70;;;;;;;6.05;100.00;102569.56;5026004;28;20104;-70
2022/11/26 03:45:23;;;;;;;26.10;6.78;;;;;;;6.06;100.00;102576.63;5013178;28;20030;-69
2022/11/26 03:47:48;;;;;;;24.25;7.15;;;;;;;6.10;100.00;102585.56;5014618;28;20502;-69
2022/11/26 03:50:13;;;;;;;25.40;6.57;;;;;;;6.09;100.00;102587.28;5018384;28;20424;-67
2022/11/26 03:52:39;;;;;;;30.35;7.15;;;;;;;6.12;100.00;102577.03;5012964;28;20060;-68
2022/11/26 03:55:04;;;;;;;21.60;6.80;;;;;;;6.11;100.00;102585.66;5013026;28;20022;-69
2022/11/26 03:57:30;;;;;;;30.98;8.52;;;;;;;6.11;100.00;102585.66;5015443;28;20092;-69
2022/11/26 03:59:55;;;;;;;25.85;7.50;;;;;;;6.10;100.00;102586.47;5017004;28;20057;-70
2022/11/26 04:02:20;;;;;;;26.85;6.85;;;;;;;6.13;100.00;102588.38;5015300;28;20083;-68
2022/11/26 04:04:46;;;;;;;23.90;7.88;;;;;;;6.15;100.00;102582.44;5021053;28;20025;-68
2022/11/26 04:07:11;;;;;;;26.20;8.02;;;;;;;6.12;100.00;102583.94;5032049;28;20436;-68
2022/11/26 04:09:36;;;;;;;34.33;8.50;;;;;;;6.12;100.00;102578.72;5018296;28;20092;-68
2022/11/26 04:12:02;;;;;;;30.92;8.20;;;;;;;6.11;100.00;102584.75;5020469;28;20462;-69
2022/11/26 04:14:27;;;;;;;31.67;8.18;;;;;;;6.12;100.00;102581.31;5013183;28;20088;-69
2022/11/26 04:16:52;;;;;;;33.10;8.20;;;;;;;6.12;100.00;102581.31;5018885;28;20112;-69
2022/11/26 04:19:18;;;;;;;21.52;8.38;;;;;;;6.10;100.00;102583.84;4997739;28;20086;-67
2022/11/26 04:21:43;;;;;;;21.23;8.05;;;;;;;6.13;100.00;102583.13;5023070;28;20450;-69
2022/11/26 04:24:08;;;;;;;35.45;9.52;;;;;;;6.13;100.00;102588.38;5015939;28;20033;-69
2022/11/26 04:26:34;;;;;;;22.58;8.07;;;;;;;6.14;100.00;102590.19;5015133;28;20017;-69
2022/11/26 04:28:59;;;;;;;22.58;7.60;;;;;;;6.12;100.00;102599.63;5011804;28;20033;-69
2022/11/26 04:31:24;;;;;;;29.45;9.02;;;;;;;6.13;100.00;102589.28;5022525;28;20366;-69
2022/11/26 04:33:50;;;;;;;29.17;9.45;;;;;;;6.14;100.00;102591.06;5018829;28;20079;-68
2022/11/26 04:36:15;;;;;;;29.60;8.27;;;;;;;6.13;100.00;102586.69;5024382;28;20347;-69
2022/11/26 04:38:41;;;;;;;37.15;9.48;;;;;;;6.15;100.00;102586.75;5018945;28;20038;-68
2022/11/26 04:41:06;;;;;;;21.90;8.70;;;;;;;6.16;100.00;102586.84;5019574;28;20025;-69
2022/11/26 04:43:32;;;;;;;18.95;8.98;;;;;;;6.15;100.00;102592.88;5016195;28;20036;-67
2022/11/26 04:45:58;;;;;;;35.10;9.32;;;;;;;6.14;100.00;102591.06;5013522;28;20040;-68
2022/11/26 04:48:23;;;;;;;27.88;8.65;;;;;;;6.13;100.00;102588.38;5012569;28;20390;-69
2022/11/26 04:50:49;;;;;;;39.80;9.52;;;;;;;6.11;100.00;102584.75;5016113;28;20113;-69
2022/11/26 04:53:15;;;;;;;26.58;8.93;;;;;;;6.13;100.00;102593.59;5013252;28;20038;-70
2022/11/26 04:55:41;;;;;;;40.03;10.38;;;;;;;6.12;100.00;102597.94;5011577;28;20504;-67
2022/11/26 04:58:06;;;;;;;31.33;10.50;;;;;;;6.15;100.00;102597.22;5012692;28;20112;-68
2022/11/26 05:00:31;;;;;;;29.42;9.77;;;;;;;6.17;100.00;102611.28;5013382;28;20057;-69
2022/11/26 05:02:56;;;;;;;34.85;10.35;;;;;;;6.17;100.00;102606.97;5012595;28;20101;-68
2022/11/26 05:05:22;;;;;;;27.42;9.85;;;;;;;6.20;100.00;102603.63;5025597;28;20049;-68
2022/11/26 05:07:47;;;;;;;25.17;10.10;;;;;;;6.17;100.00;102606.97;5016202;28;20477;-68
2022/11/26 05:10:13;;;;;;;36.05;10.18;;;;;;;6.21;100.00;102616.81;5018798;28;20026;-68
2022/11/26 05:12:38;;;;;;;36.78;10.27;;;;;;;6.20;100.00;102608.84;5012918;28;20053;-70
2022/11/26 05:15:04;;;;;;;36.85;11.20;;;;;;;6.19;100.00;102614.91;5026660;28;20112;-69
2022/11/26 05:17:29;;;;;;;35.92;11.20;;;;;;;6.17;100.00;102609.59;5015312;28;20040;-69
2022/11/26 05:19:55;;;;;;;33.33;10.45;;;;;;;6.17;100.00;102616.50;5016213;28;20030;-69
2022/11/26 05:22:20;;;;;;;33.50;10.88;;;;;;;6.21;100.00;102613.28;5017223;28;20108;-70
2022/11/26 05:24:45;;;;;;;43.08;12.57;;;;;;;6.21;100.00;102618.50;5015587;28;20489;-69
2022/11/26 05:27:11;;;;;;;35.78;11.70;;;;;;;6.16;100.00;102625.13;5011929;28;20386;-69
2022/11/26 05:29:36;;;;;;;34.72;11.05;;;;;;;6.14;100.00;102626.78;5012797;28;20030;-69
2022/11/26 05:32:02;;;;;;;32.55;10.45;;;;;;;6.17;100.00;102626.97;5021420;28;20033;-68
2022/11/26 05:34:27;;;;;;;26.80;10.32;;;;;;;6.18;100.00;102629.66;5012267;28;20451;-69
2022/11/26 05:36:52;;;;;;;35.42;11.70;;;;;;;6.16;100.00;102631.28;5023071;28;20021;-68
2022/11/26 05:39:18;;;;;;;49.90;11.60;;;;;;;6.14;100.00;102632.88;5027553;28;20063;-68
2022/11/26 05:41:43;;;;;;;46.70;13.68;;;;;;;6.14;100.00;102632.00;5020085;28;20458;-70
2022/11/26 05:44:08;;;;;;;32.38;12.43;;;;;;;6.12;100.00;102633.59;5025196;28;20350;-69
2022/11/26 05:46:38;;;;;;;46.50;12.30;;;;;;;6.13;100.00;102635.41;5032800;28;20065;-69
2022/11/26 05:49:03;;;;;;;40.47;13.48;;;;;;;6.10;100.00;102632.59;5022895;28;20055;-70
2022/11/26 05:51:28;;;;;;;41.13;12.85;;;;;;;6.08;100.00;102630.78;5028178;28;20034;-70
2022/11/26 05:53:53;;;;;;;32.17;12.73;;;;;;;6.05;100.00;102642.75;5016365;28;20064;-69
2022/11/26 05:56:19;;;;;;;35.53;12.73;;;;;;;6.06;100.00;102642.88;5028480;28;20114;-68
2022/11/26 05:58:44;;;;;;;32.50;12.60;;;;;;;6.04;100.00;102643.59;5019939;28;20026;-69
2022/11/26 06:01:09;;;;;;;40.20;13.63;;;;;;;6.06;100.00;102655.94;5022014;28;20033;-69
2022/11/26 06:03:36;;;;;;;42.72;14.98;;;;;;;6.04;100.00;102647.09;5018685;28;20049;-68
2022/11/26 06:06:02;;;;;;;48.13;14.75;;;;;;;6.03;100.00;102647.88;5031408;28;20037;-68
2022/11/26 06:08:27;;;;;;;40.60;15.70;;;;;;;6.04;100.00;102647.09;5019973;28;20030;-68
2022/11/26 06:10:53;;;;;;;38.00;15.52;;;;;;;6.03;100.00;102652.22;5025745;28;20029;-68
2022/11/26 06:13:19;;;;;;;35.08;15.80;;;;;;;6.00;100.00;102652.91;5018212;28;20029;-69
2022/11/26 06:15:44;;;;;;;39.35;16.08;;;;;;;6.03;100.00;102653.09;5022354;28;20033;-68
2022/11/26 06:18:09;;;;;;;44.65;15.10;;;;;;;6.03;100.00;102647.88;5025849;28;20080;-69
2022/11/26 06:20:36;;;;;;;45.75;16.13;;;;;;;5.99;100.00;102651.09;5016265;28;20029;-68
2022/11/26 06:23:01;;;;;;;47.17;15.63;;;;;;;6.03;100.00;102649.59;5020521;28;20017;-69
2022/11/26 06:25:27;;;;;;;45.72;14.98;;;;;;;6.05;100.00;102642.75;5032640;28;20386;-69
2022/11/26 06:27:52;;;;;;;51.45;15.35;;;;;;;6.08;100.00;102651.69;5023508;28;20033;-68
2022/11/26 06:30:18;;;;;;;36.35;14.68;;;;;;;6.14;100.00;102652.91;5018406;28;20041;-68
2022/11/26 06:32:43;;;;;;;43.95;15.25;;;;;;;6.17;100.00;102655.72;5015341;28;20028;-68
2022/11/26 06:35:08;;;;;;;39.72;12.85;;;;;;;6.21;100.00;102649.88;5027773;28;20037;-68
2022/11/26 06:37:34;;;;;;;41.70;13.98;;;;;;;6.23;100.00;102653.50;5020716;28;20030;-68
2022/11/26 06:39:59;;;;;;;47.55;13.88;;;;;;;6.23;100.00;102650.88;5016432;28;20489;-70
2022/11/26 06:42:25;;;;;;;48.17;13.35;;;;;;;6.20;100.00;102653.28;5016900;28;20030;-70
2022/11/26 06:44:50;;;;;;;37.50;14.70;;;;;;;6.22;100.00;102656.91;5021814;28;20089;-69
2022/11/26 06:47:15;;;;;;;37.97;12.98;;;;;;;6.21;100.00;102663.84;5025076;28;20025;-68
2022/11/26 06:49:41;;;;;;;39.45;13.18;;;;;;;6.20;100.00;102672.50;5014796;28;20041;-69
2022/11/26 06:52:06;;;;;;;37.70;12.45;;;;;;;6.22;100.00;102660.41;5014588;28;20033;-68
2022/11/26 06:54:32;;;;;;;37.70;12.73;;;;;;;6.23;100.00;102669.19;5026210;28;20034;-69
2022/11/26 06:56:57;;;;;;;43.35;12.65;;;;;;;6.24;100.00;102668.38;5017840;28;20091;-69
2022/11/26 06:59:23;;;;;;;43.40;12.57;;;;;;;6.26;100.00;102669.38;5025217;28;20145;-70
2022/11/26 07:01:48;;;;;;;42.22;13.55;;;;;;;6.23;100.00;102679.63;5021395;28;20041;-68
2022/11/26 07:04:14;;;;;;;44.42;13.00;;;;;;;6.23;100.00;102690.09;5025442;28;20035;-68
2022/11/26 07:06:39;;;;;;;36.55;11.77;;;;;;;6.23;100.00;102684.88;5018445;28;20489;-68
2022/11/26 07:09:08;;;;;;;40.28;12.25;;;;;;;6.27;100.00;102692.09;5016552;28;20029;-69
2022/11/26 07:11:35;;;;;;;28.48;10.55;;;;;;;6.31;100.00;102694.09;5017034;28;20033;-68
2022/11/26 07:14:00;;;;;;;50.30;13.02;;;;;;;6.33;100.00;102692.47;5023964;28;20101;-69
2022/11/26 07:16:27;;;;;;;31.98;11.88;;;;;;;6.35;100.00;102693.50;5021395;28;20401;-69
2022/11/26 07:18:54;;;;;;;38.50;10.63;;;;;;;6.36;100.00;102690.06;5015334;28;20030;-68
2022/11/26 07:21:21;;;;;;;35.00;11.85;;;;;;;6.38;100.00;102691.06;5016496;28;20026;-69
2022/11/26 07:23:47;;;;;;;31.00;10.98;;;;;;;6.39;100.00;102697.22;5013345;28;20041;-68
2022/11/26 07:26:13;;;;;;;39.80;11.52;;;;;;;6.38;100.00;102698.91;5013365;28;20083;-68
2022/11/26 07:28:40;;;;;;;41.28;11.80;;;;;;;6.43;100.00;102687.84;5023635;28;20100;-70
2022/11/26 07:31:08;;;;;;;31.42;10.00;;;;;;;6.40;100.00;102705.16;5020384;28;20029;-68
2022/11/26 07:33:34;;;;;;;40.65;11.55;;;;;;;6.41;100.00;102700.81;5013731;28;20026;-69
2022/11/26 07:36:04;;;;;;;30.70;10.45;;;;;;;6.43;100.00;102695.69;5022564;28;20358;-70
2022/11/26 07:38:30;;;;;;;43.78;10.85;;;;;;;6.44;100.00;102700.09;5024089;28;20033;-70
2022/11/26 07:41:07;;;;;;;44.95;11.57;;;;;;;6.44;100.00;102705.34;5023583;28;20122;-70
2022/11/26 07:43:34;;;;;;;33.65;10.60;;;;;;;6.45;100.00;102710.66;5053175;28;20388;-70
2022/11/26 07:46:03;;;;;;;27.83;9.82;;;;;;;6.49;100.00;102711.78;5030183;28;20025;-70
2022/11/26 07:48:31;;;;;;;30.20;10.57;;;;;;;6.52;100.00;102704.09;5015231;28;20049;-72
2022/11/26 07:50:57;;;;;;;36.22;10.82;;;;;;;6.53;100.00;102706.81;5024655;28;20041;-69
2022/11/26 07:53:22;;;;;;;27.90;9.98;;;;;;;6.57;100.00;102707.94;5018023;28;20038;-70
2022/11/26 07:55:48;;;;;;;35.25;11.70;;;;;;;6.55;100.00;102699.06;5021157;28;20024;-71
2022/11/26 07:58:13;;;;;;;36.55;10.98;;;;;;;6.57;100.00;102710.53;5013482;28;20467;-70
2022/11/26 08:00:38;;;;;;;36.30;11.32;;;;;;;6.58;100.00;102721.09;5016048;28;20045;-69
2022/11/26 08:03:04;;;;;;;32.78;11.45;;;;;;;6.62;100.00;102703.91;5022218;28;20423;-68
2022/11/26 08:05:29;;;;;;;37.20;10.15;;;;;;;6.67;100.00;102705.06;5013350;28;20120;-68
2022/11/26 08:07:54;;;;;;;36.13;10.50;;;;;;;6.69;100.00;102708.69;5018153;28;20040;-68
2022/11/26 08:10:19;;;;;;;35.78;10.38;;;;;;;6.71;100.00;102716.63;5024190;28;20139;-69
2022/11/26 08:12:45;;;;;;;44.92;11.20;;;;;;;6.70;100.00;102717.44;5013368;28;20057;-69
2022/11/26 08:15:10;;;;;;;25.33;9.85;;;;;;;6.70;100.00;102710.50;5026106;28;20392;-70
2022/11/26 08:17:36;;;;;;;38.58;11.13;;;;;;;6.75;100.00;102718.63;5021618;28;20086;-68
2022/11/26 08:20:01;;;;;;;28.67;9.70;;;;;;;6.80;100.00;102721.56;5027022;28;20030;-73
2022/11/26 08:22:28;;;;;;;41.97;10.90;;;;;;;6.83;100.00;102721.72;5025517;28;20469;-69
2022/11/26 08:24:54;;;;;;;32.28;9.73;;;;;;;6.86;100.00;102717.59;5020095;28;20029;-70
2022/11/26 08:27:19;;;;;;;35.60;10.57;;;;;;;6.93;100.00;102718.84;5018650;28;20032;-69
2022/11/26 08:29:45;;;;;;;41.28;11.30;;;;;;;6.92;100.00;102717.06;5019427;28;20026;-69
2022/11/26 08:32:10;;;;;;;30.30;9.90;;;;;;;6.94;100.00;102717.16;5031598;28;20364;-68
2022/11/26 08:34:36;;;;;;;31.83;9.45;;;;;;;6.98;100.00;102720.06;5043180;28;20464;-69
2022/11/26 08:37:03;;;;;;;28.88;9.20;;;;;;;7.05;100.00;102730.13;5039161;28;20025;-69
2022/11/26 08:39:29;;;;;;;24.10;10.15;;;;;;;7.11;100.00;102726.97;5033568;28;20021;-69
2022/11/26 08:41:54;;;;;;;36.10;9.40;;;;;;;7.12;100.00;102730.47;5029616;28;20039;-69
2022/11/26 08:44:20;;;;;;;36.63;10.05;;;;;;;7.17;100.00;102734.28;5033707;28;20033;-69
2022/11/26 08:46:45;;;;;;;25.17;9.68;;;;;;;7.16;100.00;102738.63;5024351;28;20092;-70
2022/11/26 08:49:13;;;;;;;31.42;9.65;;;;;;;7.18;100.00;102730.84;5020639;28;20104;-70
2022/11/26 08:51:39;;;;;;;38.13;10.13;;;;;;;7.18;100.00;102729.13;5012730;28;20091;-69
2022/11/26 08:54:04;;;;;;;51.08;10.02;;;;;;;7.22;100.00;102730.22;5011360;28;20116;-68
2022/11/26 08:56:29;;;;;;;31.52;9.77;;;;;;;7.21;100.00;102725.81;5016212;28;20017;-68
2022/11/26 08:58:55;;;;;;;27.48;9.15;;;;;;;7.22;100.00;102732.84;5030683;28;20057;-68
2022/11/26 09:01:26;;;;;;;37.55;10.30;;;;;;;7.23;100.00;102734.63;5030568;28;20033;-68
2022/11/26 09:03:53;;;;;;;40.85;10.57;;;;;;;7.32;100.00;102735.19;5016564;28;20116;-70
2022/11/26 09:06:21;;;;;;;37.95;10.05;;;;;;;7.29;100.00;102734.13;5025332;28;20430;-69
2022/11/26 09:11:33;;;;;;;35.85;10.25;;;;;;;7.30;100.00;102747.31;5012596;28;20044;-68
2022/11/26 09:14:01;;;;;;;37.60;9.85;;;;;;;7.40;100.00;102749.66;5024264;28;20049;-68
2022/11/26 09:16:27;;;;;;;32.58;9.18;;;;;;;7.36;100.00;102749.38;5031396;28;20017;-69
2022/11/26 09:18:52;;;;;;;30.83;9.38;;;;;;;7.40;100.00;102748.75;5043510;28;20095;-69
2022/11/26 09:21:18;;;;;;;34.03;9.23;;;;;;;7.48;100.00;102737.03;5020277;28;20435;-69
2022/11/26 09:23:43;;;;;;;30.67;8.25;;;;;;;7.52;100.00;102736.41;5044068;28;20381;-69
2022/11/26 09:26:09;;;;;;;25.48;8.93;;;;;;;7.56;100.00;102730.53;5040236;28;20030;-70
2022/11/26 09:28:34;;;;;;;27.15;9.50;;;;;;;7.56;100.00;102733.16;5022815;28;20083;-69
2022/11/26 09:31:01;;;;;;;30.25;8.60;;;;;;;7.64;100.00;102733.63;5026528;28;20477;-69
2022/11/26 09:33:27;;;;;;;35.63;9.57;;;;;;;7.62;100.00;102735.22;5020840;28;20052;-68
2022/11/26 09:35:52;;;;;;;32.38;8.55;;;;;;;7.65;100.00;102742.38;5018268;28;20060;-69
2022/11/26 09:38:18;;;;;;;29.95;8.30;;;;;;;7.73;100.00;102742.03;5035526;28;20037;-69
2022/11/26 09:40:53;;;;;;;29.20;7.95;;;;;;;7.83;100.00;102747.81;5022479;28;20045;-70
2022/11/26 09:43:37;;;;;;;31.02;7.90;;;;;;;7.87;100.00;102753.31;5023082;28;20053;-69
2022/11/26 09:46:02;;;;;;;31.98;8.27;;;;;;;7.97;100.00;102756.47;5013975;28;20473;-71
2022/11/26 09:48:31;;;;;;;35.53;9.07;;;;;;;7.99;100.00;102758.38;5024751;28;20029;-69
2022/11/26 09:51:04;;;;;;;24.02;7.90;;;;;;;8.06;100.00;102759.63;5032404;28;20053;-69
2022/11/26 09:53:37;;;;;;;26.67;8.67;;;;;;;8.07;100.00;102751.84;5036046;28;20092;-69
2022/11/26 09:56:07;;;;;;;27.52;7.82;;;;;;;8.18;100.00;102748.91;5029512;28;20041;-70
2022/11/26 09:58:41;;;;;;;24.58;7.63;;;;;;;8.20;100.00;102742.94;5027337;28;20604;-69
2022/11/26 10:01:15;;;;;;;29.48;8.63;;;;;;;8.21;100.00;102746.50;5028932;28;20045;-68
2022/11/26 10:03:41;;;;;;;28.30;7.30;;;;;;;8.29;100.00;102747.81;5033962;28;20034;-68
2022/11/26 10:06:26;;;;;;;30.38;7.53;;;;;;;8.43;100.00;102746.88;5034184;28;20468;-68
2022/11/26 10:09:09;;;;;;;27.27;7.85;;;;;;;8.50;100.00;102747.25;5036278;28;20083;-69
2022/11/26 10:11:40;;;;;;;22.48;6.65;;;;;;;8.71;100.00;102751.06;5024640;28;20025;-68
2022/11/26 10:14:27;;;;;;;31.05;7.55;;;;;;;8.86;100.00;102768.50;5038817;28;20416;-69
2022/11/26 10:17:14;;;;;;;27.83;7.07;;;;;;;9.00;100.00;102757.00;5016621;28;20500;-69
2022/11/26 10:20:20;;;;;;;31.35;7.70;;;;;;;9.15;100.00;102756.91;5028616;28;20081;-68
2022/11/26 10:22:49;;;;;;;27.13;7.38;;;;;;;9.32;100.00;102755.19;5015322;28;20026;-69
2022/11/26 10:25:19;;;;;;;24.63;6.60;;;;;;;9.53;100.00;102759.75;5018019;28;20062;-68
2022/11/26 10:27:45;;;;;;;27.48;8.57;;;;;;;9.78;100.00;102754.94;5013871;28;20033;-68
2022/11/26 10:30:25;;;;;;;33.33;7.60;;;;;;;10.15;100.00;102761.13;5014746;28;20029;-68
2022/11/26 10:32:53;;;;;;;29.20;6.03;;;;;;;10.46;100.00;102760.03;5033112;28;20393;-69
2022/11/26 10:35:26;;;;;;;34.13;7.15;;;;;;;10.54;100.00;102752.47;5024466;28;20087;-68
2022/11/26 10:37:56;;;;;;;26.65;6.43;;;;;;;10.57;100.00;102747.38;5034078;28;20033;-70
2022/11/26 10:40:23;;;;;;;18.65;5.80;;;;;;;10.48;100.00;102753.09;5032645;28;20044;-69
2022/11/26 10:43:09;;;;;;;14.40;5.63;;;;;;;10.35;100.00;102751.63;5022594;28;20109;-69
2022/11/26 10:45:39;;;;;;;18.52;5.78;;;;;;;10.23;100.00;102735.19;5024370;28;20461;-69
2022/11/26 10:48:14;;;;;;;18.38;4.97;;;;;;;10.26;100.00;102743.22;5034368;28;20052;-70
2022/11/26 10:50:40;;;;;;;26.20;6.43;;;;;;;10.15;100.00;102745.34;5020982;28;20026;-70
2022/11/26 10:53:06;;;;;;;20.20;5.88;;;;;;;10.14;100.00;102740.91;5024725;28;20354;-69
2022/11/26 10:55:37;;;;;;;29.08;5.85;;;;;;;10.21;100.00;102736.84;5030292;28;20022;-70
2022/11/26 10:58:12;;;;;;;23.20;5.90;;;;;;;10.21;100.00;102745.63;5028777;28;20060;-71
2022/11/26 11:00:42;;;;;;;15.00;5.82;;;;;;;10.26;100.00;102749.38;5020427;28;20541;-71
2022/11/26 11:03:29;;;;;;;26.65;5.80;;;;;;;10.34;100.00;102760.28;5039974;28;20495;-71
2022/11/26 11:06:17;;;;;;;24.02;5.60;;;;;;;10.29;100.00;102760.09;5028112;28;20354;-71
2022/11/26 11:08:43;;;;;;;26.48;6.25;;;;;;;10.23;100.00;102756.25;5029600;28;20515;-70
2022/11/26 11:11:19;;;;;;;18.70;5.22;;;;;;;10.37;100.00;102764.84;5029120;28;20025;-70
2022/11/26 11:13:46;;;;;;;23.08;6.68;;;;;;;10.41;100.00;102766.78;5025925;28;20036;-69
2022/11/26 11:16:14;;;;;;;28.55;5.85;;;;;;;10.20;100.00;102756.06;5029414;28;20460;-71
2022/11/26 11:18:50;;;;;;;26.20;5.70;;;;;;;9.98;100.00;102757.66;5029683;28;20390;-69
2022/11/26 11:21:18;;;;;;;25.70;5.93;;;;;;;9.88;100.00;102764.19;5031620;28;20037;-68